createdAt,value
2022-12-11T00:00:33.261Z,7.68
2022-12-11T00:03:09.136Z,7.18
2022-12-11T00:05:45.404Z,7.82
2022-12-11T00:08:17.997Z,6.18
2022-12-11T00:10:50.908Z,7.13
2022-12-11T00:13:23.598Z,6.75
2022-12-11T00:15:59.057Z,7.00
2022-12-11T00:18:31.782Z,7.05
2022-12-11T00:21:07.681Z,7.63
2022-12-11T00:23:41.113Z,6.65
2022-12-11T00:26:16.006Z,6.57
2022-12-11T00:28:52.918Z,8.07
2022-12-11T00:31:25.475Z,6.78
2022-12-11T00:33:58.025Z,6.18
2022-12-11T00:36:30.551Z,7.28
2022-12-11T00:39:04.668Z,5.75
2022-12-11T00:41:37.270Z,5.93
2022-12-11T00:44:09.767Z,7.60
2022-12-11T00:46:42.345Z,6.90
2022-12-11T00:49:14.903Z,7.72
2022-12-11T00:51:47.413Z,7.10
2022-12-11T00:54:20.280Z,7.90
2022-12-11T00:56:55.013Z,7.30
2022-12-11T00:59:29.144Z,7.47
2022-12-11T01:02:01.730Z,6.97
2022-12-11T01:04:36.971Z,6.85
2022-12-11T01:07:09.618Z,5.85
2022-12-11T01:10:00.586Z,7.20
2022-12-11T01:12:33.074Z,8.45
2022-12-11T01:15:06.340Z,6.72
2022-12-11T01:17:38.963Z,6.47
2022-12-11T01:20:12.349Z,6.45
2022-12-11T01:22:45.026Z,7.77
2022-12-11T01:25:17.564Z,6.43
2022-12-11T01:27:52.694Z,6.00
2022-12-11T01:30:26.138Z,6.88
2022-12-11T01:32:58.905Z,6.57
2022-12-11T01:35:31.584Z,6.38
2022-12-11T01:38:04.074Z,6.90
2022-12-11T01:40:36.590Z,6.13
2022-12-11T01:43:11.569Z,6.53
2022-12-11T01:45:48.013Z,6.80
2022-12-11T01:48:31.440Z,5.85
2022-12-11T01:51:05.594Z,6.97
2022-12-11T01:56:15.361Z,5.75
2022-12-11T01:58:55.663Z,6.65
2022-12-11T02:01:34.524Z,6.30
2022-12-11T02:04:09.328Z,5.47
2022-12-11T02:06:47.298Z,6.03
2022-12-11T02:09:29.038Z,5.38
2022-12-11T02:13:05.001Z,6.05
2022-12-11T02:16:05.906Z,6.75
2022-12-11T02:19:02.076Z,5.90
2022-12-11T02:21:43.446Z,5.50
2022-12-11T02:24:43.040Z,6.45
2022-12-11T02:27:32.272Z,6.55
2022-12-11T02:30:08.944Z,5.50
2022-12-11T02:32:57.533Z,6.22
2022-12-11T02:35:46.029Z,6.90
2022-12-11T02:38:30.014Z,6.00
2022-12-11T02:41:07.184Z,5.47
2022-12-11T02:43:43.077Z,6.07
2022-12-11T02:46:20.631Z,6.82
2022-12-11T02:48:55.820Z,5.45
2022-12-11T02:51:38.272Z,5.50
2022-12-11T02:54:20.767Z,5.40
2022-12-11T02:57:08.505Z,5.25
2022-12-11T02:59:45.109Z,5.13
2022-12-11T03:02:18.858Z,5.55
2022-12-11T03:04:51.787Z,5.43
2022-12-11T03:07:34.997Z,5.43
2022-12-11T03:10:15.412Z,5.35
2022-12-11T03:12:54.884Z,5.75
2022-12-11T03:16:04.122Z,4.40
2022-12-11T03:18:52.821Z,5.80
2022-12-11T03:21:43.290Z,4.88
2022-12-11T03:24:43.953Z,5.45
2022-12-11T03:27:45.185Z,5.90
2022-12-11T03:30:24.084Z,4.93
2022-12-11T03:33:06.761Z,5.75
2022-12-11T03:35:44.110Z,4.78
2022-12-11T03:38:31.008Z,4.43
2022-12-11T03:41:07.798Z,5.53
2022-12-11T03:43:41.585Z,5.18
2022-12-11T03:46:16.989Z,4.53
2022-12-11T03:48:51.581Z,5.05
2022-12-11T03:51:25.852Z,4.90
2022-12-11T03:56:36.947Z,5.38
2022-12-11T03:59:10.069Z,4.47
2022-12-11T04:01:42.660Z,5.28
2022-12-11T04:04:15.521Z,4.82
2022-12-11T04:06:48.218Z,4.60
2022-12-11T04:09:20.708Z,4.43
2022-12-11T04:11:53.264Z,4.47
2022-12-11T04:14:44.413Z,3.72
2022-12-11T04:17:37.054Z,3.70
2022-12-11T04:20:31.292Z,4.10
2022-12-11T04:23:34.695Z,3.40
2022-12-11T04:26:17.777Z,4.53
2022-12-11T04:28:50.965Z,4.15
2022-12-11T04:31:23.564Z,3.88
2022-12-11T04:33:56.198Z,4.55
2022-12-11T04:36:28.753Z,4.28
2022-12-11T04:39:01.339Z,4.45
2022-12-11T04:41:35.734Z,4.05
2022-12-11T04:44:09.096Z,4.68
2022-12-11T04:46:41.717Z,4.63
2022-12-11T04:49:14.372Z,3.80
2022-12-11T04:51:46.942Z,3.58
2022-12-11T04:54:19.465Z,3.70
2022-12-11T04:56:51.991Z,4.07
2022-12-11T04:59:24.504Z,4.38
2022-12-11T05:01:57.628Z,4.45
2022-12-11T05:04:34.902Z,3.90
2022-12-11T05:07:09.224Z,3.13
2022-12-11T05:09:41.829Z,3.33
2022-12-11T05:12:14.309Z,4.63
2022-12-11T05:14:46.933Z,3.50
2022-12-11T05:17:21.566Z,3.30
2022-12-11T05:19:54.250Z,3.63
2022-12-11T05:22:26.738Z,3.45
2022-12-11T05:24:59.269Z,3.20
2022-12-11T05:27:31.847Z,3.72
2022-12-11T05:30:05.213Z,2.42
2022-12-11T05:32:37.696Z,3.20
2022-12-11T05:35:10.403Z,2.83
2022-12-11T05:37:43.092Z,3.30
2022-12-11T05:40:15.754Z,2.80
2022-12-11T05:42:48.228Z,3.58
2022-12-11T05:45:20.771Z,2.78
2022-12-11T05:47:53.297Z,2.90
2022-12-11T05:50:25.789Z,2.90
2022-12-11T05:52:58.309Z,3.10
2022-12-11T05:55:35.220Z,3.03
2022-12-11T05:58:07.750Z,2.40
2022-12-11T06:00:42.468Z,2.95
2022-12-11T06:03:15.818Z,2.75
2022-12-11T06:05:49.216Z,2.93
2022-12-11T06:08:21.740Z,2.88
2022-12-11T06:10:54.318Z,2.45
2022-12-11T06:13:27.349Z,2.42
2022-12-11T06:16:06.340Z,3.13
2022-12-11T06:18:43.903Z,2.95
2022-12-11T06:21:23.999Z,2.95
2022-12-11T06:24:00.596Z,3.20
2022-12-11T06:26:33.141Z,3.05
2022-12-11T06:29:09.230Z,2.67
2022-12-11T06:31:45.304Z,2.72
2022-12-11T06:34:17.874Z,2.92
2022-12-11T06:36:50.401Z,2.20
2022-12-11T06:39:22.901Z,2.78
2022-12-11T06:41:55.457Z,3.20
2022-12-11T06:44:28.122Z,2.35
2022-12-11T06:47:00.676Z,2.67
2022-12-11T06:49:33.289Z,2.80
2022-12-11T06:52:06.198Z,2.35
2022-12-11T06:54:38.791Z,2.88
2022-12-11T06:57:11.387Z,2.22
2022-12-11T06:59:44.336Z,2.65
2022-12-11T07:02:19.470Z,3.45
2022-12-11T07:04:55.267Z,2.03
2022-12-11T07:07:28.064Z,2.13
2022-12-11T07:10:07.661Z,3.78
2022-12-11T07:12:41.024Z,2.13
2022-12-11T07:15:13.946Z,2.28
2022-12-11T07:17:46.713Z,2.35
2022-12-11T07:20:19.193Z,1.90
2022-12-11T07:22:51.669Z,2.45
2022-12-11T07:25:24.185Z,2.08
2022-12-11T07:27:57.633Z,1.88
2022-12-11T07:30:30.540Z,2.30
2022-12-11T07:33:03.179Z,2.53
2022-12-11T07:35:36.376Z,2.33
2022-12-11T07:38:08.956Z,2.97
2022-12-11T07:40:41.550Z,2.40
2022-12-11T07:43:15.238Z,2.08
2022-12-11T07:45:48.038Z,2.30
2022-12-11T07:48:20.659Z,2.30
2022-12-11T07:50:54.707Z,2.38
2022-12-11T07:53:27.246Z,1.90
2022-12-11T07:55:59.921Z,2.30
2022-12-11T07:58:32.742Z,2.67
2022-12-11T08:01:10.668Z,2.38
2022-12-11T08:03:43.677Z,2.30
2022-12-11T08:06:16.897Z,1.70
2022-12-11T08:08:49.661Z,2.17
2022-12-11T08:11:23.353Z,1.90
2022-12-11T08:13:56.092Z,2.38
2022-12-11T08:16:29.697Z,2.40
2022-12-11T08:19:02.367Z,1.90
2022-12-11T08:21:34.877Z,2.67
2022-12-11T08:24:09.083Z,2.40
2022-12-11T08:29:19.963Z,2.35
2022-12-11T08:31:52.485Z,3.05
2022-12-11T08:34:25.083Z,2.05
2022-12-11T08:36:57.592Z,3.00
2022-12-11T08:39:30.301Z,2.20
2022-12-11T08:42:02.956Z,2.15
2022-12-11T08:44:35.542Z,3.38
2022-12-11T08:47:09.828Z,2.22
2022-12-11T08:49:42.403Z,2.80
2022-12-11T08:52:14.929Z,1.95
2022-12-11T08:54:48.308Z,2.72
2022-12-11T08:57:20.844Z,2.35
2022-12-11T08:59:53.434Z,2.55
2022-12-11T09:02:26.080Z,2.60
2022-12-11T09:04:59.084Z,2.65
2022-12-11T09:07:31.583Z,2.67
2022-12-11T09:10:06.890Z,2.50
2022-12-11T09:12:39.606Z,2.67
2022-12-11T09:15:12.556Z,2.25
2022-12-11T09:17:48.180Z,2.83
2022-12-11T09:20:20.852Z,2.50
2022-12-11T11:12:28.401Z,2.58
2022-12-11T11:15:13.342Z,2.67
2022-12-11T11:17:55.728Z,1.88
2022-12-11T11:20:31.537Z,2.25
2022-12-11T11:23:15.622Z,2.67
2022-12-11T11:26:01.870Z,2.70
2022-12-11T11:28:48.047Z,2.60
2022-12-11T11:31:31.506Z,1.92
2022-12-11T11:34:18.720Z,2.40
2022-12-11T11:37:01.126Z,2.13
2022-12-11T11:39:45.205Z,2.63
2022-12-11T11:42:30.140Z,2.20
2022-12-11T11:45:17.512Z,2.30
2022-12-11T11:48:34.130Z,2.90
2022-12-11T11:51:16.132Z,2.20
2022-12-11T11:53:51.900Z,3.08
2022-12-11T11:56:37.575Z,2.65
2022-12-11T11:59:34.118Z,2.83
2022-12-11T12:02:17.688Z,3.00
2022-12-11T12:04:51.978Z,3.03
2022-12-11T12:07:52.507Z,2.63
2022-12-11T12:10:39.975Z,2.42
2022-12-11T12:13:55.588Z,2.63
2022-12-11T12:16:53.766Z,2.00
2022-12-11T12:19:54.805Z,2.58
2022-12-11T12:23:05.123Z,2.55
2022-12-11T12:25:49.312Z,2.47
2022-12-11T12:29:07.428Z,3.00
2022-12-11T12:31:53.599Z,2.55
2022-12-11T12:35:14.540Z,2.38
2022-12-11T12:38:40.355Z,3.13
2022-12-11T12:44:13.881Z,2.10
2022-12-11T12:46:58.912Z,2.00
2022-12-11T12:49:42.980Z,2.42
2022-12-11T12:52:21.437Z,2.00
2022-12-11T12:55:16.164Z,2.17
2022-12-11T13:00:29.479Z,2.10
2022-12-11T13:03:13.930Z,2.08
2022-12-11T13:08:46.394Z,2.50
2022-12-11T13:11:30.569Z,2.88
2022-12-11T13:14:27.915Z,2.65
2022-12-11T13:17:21.347Z,2.25
2022-12-11T13:20:22.107Z,3.05
2022-12-11T13:23:06.842Z,1.98
2022-12-11T13:25:49.337Z,1.88
2022-12-11T13:28:38.800Z,2.15
2022-12-11T13:31:14.223Z,2.28
2022-12-11T13:33:51.974Z,2.05
2022-12-11T13:36:33.859Z,2.78
2022-12-11T13:39:30.956Z,2.72
2022-12-11T13:42:20.599Z,2.58
2022-12-11T13:44:53.765Z,2.08
2022-12-11T13:47:29.024Z,1.90
2022-12-11T13:50:34.947Z,2.00
2022-12-11T13:53:17.696Z,1.80
2022-12-11T13:55:58.606Z,2.65
2022-12-11T13:58:47.333Z,3.00
2022-12-11T14:01:35.461Z,2.17
2022-12-11T14:04:15.955Z,2.22
2022-12-11T14:06:49.847Z,2.30
2022-12-11T14:09:27.434Z,2.05
2022-12-11T14:12:00.329Z,2.03
2022-12-11T14:14:45.845Z,1.80
2022-12-11T14:17:26.770Z,2.10
2022-12-11T14:20:07.454Z,1.70
2022-12-11T14:22:40.194Z,2.35
2022-12-11T14:25:27.466Z,2.13
2022-12-11T14:28:01.551Z,2.20
2022-12-11T14:33:11.512Z,2.30
2022-12-11T14:35:45.935Z,2.72
2022-12-11T14:38:33.219Z,2.13
2022-12-11T14:41:16.944Z,1.90
2022-12-11T14:43:56.715Z,1.83
2022-12-11T14:46:40.132Z,1.90
2022-12-11T14:49:31.837Z,1.77
2022-12-11T14:52:06.275Z,2.20
2022-12-11T14:54:45.609Z,2.15
2022-12-11T14:57:24.862Z,2.40
2022-12-11T14:59:58.352Z,1.98
2022-12-11T15:02:36.395Z,2.33
2022-12-11T15:05:19.403Z,2.42
2022-12-11T15:08:26.670Z,1.95
2022-12-11T15:11:15.304Z,2.05
2022-12-11T15:13:56.559Z,2.05
2022-12-11T15:16:37.208Z,2.50
2022-12-11T15:19:36.551Z,2.08
2022-12-11T15:22:15.236Z,1.63
2022-12-11T15:24:52.828Z,1.80
2022-12-11T15:27:37.448Z,2.00
2022-12-11T15:30:28.419Z,1.90
2022-12-11T15:33:09.794Z,2.03
2022-12-11T15:35:58.186Z,1.80
2022-12-11T15:38:40.601Z,1.98
2022-12-11T15:41:24.511Z,2.13
2022-12-11T15:43:59.083Z,1.73
2022-12-11T15:46:36.716Z,1.90
2022-12-11T15:49:13.196Z,2.72
2022-12-11T15:51:46.286Z,2.05
2022-12-11T15:54:22.960Z,2.05
2022-12-11T15:56:55.581Z,1.90
2022-12-11T15:59:28.109Z,2.20
2022-12-11T16:02:00.679Z,2.28
2022-12-11T16:04:35.269Z,1.70
2022-12-11T16:07:29.901Z,2.28
2022-12-11T16:10:04.834Z,2.35
2022-12-11T16:12:38.454Z,1.85
2022-12-11T16:15:17.483Z,1.90
2022-12-11T16:18:08.113Z,1.95
2022-12-11T16:20:45.836Z,1.52
2022-12-11T16:23:19.731Z,1.77
2022-12-11T16:25:52.570Z,2.00
2022-12-11T16:28:25.144Z,1.73
2022-12-11T16:30:57.958Z,1.73
2022-12-11T16:33:30.570Z,1.83
2022-12-11T16:36:11.526Z,2.00
2022-12-11T16:38:53.593Z,1.63
2022-12-11T16:41:26.923Z,2.15
2022-12-11T16:44:01.227Z,2.10
2022-12-11T16:46:34.577Z,1.90
2022-12-11T16:49:07.330Z,2.15
2022-12-11T16:51:40.024Z,2.00
2022-12-11T16:54:12.941Z,2.53
2022-12-11T16:56:46.643Z,1.77
2022-12-11T16:59:19.432Z,2.08
2022-12-11T17:01:52.230Z,2.03
2022-12-11T17:04:24.992Z,2.53
2022-12-11T17:06:57.617Z,1.80
2022-12-11T17:09:30.764Z,1.70
2022-12-11T17:12:04.375Z,2.50
2022-12-11T17:14:37.295Z,1.95
2022-12-11T17:17:10.036Z,1.83
2022-12-11T17:19:48.487Z,2.25
2022-12-11T17:22:22.328Z,1.65
2022-12-11T17:24:54.951Z,2.20
2022-12-11T17:27:27.647Z,2.22
2022-12-11T17:30:00.252Z,1.95
2022-12-11T17:32:32.785Z,2.20
2022-12-11T17:35:06.353Z,1.90
2022-12-11T17:37:38.947Z,2.03
2022-12-11T17:40:11.974Z,2.42
2022-12-11T17:42:44.960Z,1.85
2022-12-11T17:45:17.903Z,1.52
2022-12-11T17:47:50.469Z,1.92
2022-12-11T17:50:23.024Z,1.38
2022-12-11T17:52:55.560Z,2.08
2022-12-11T17:55:28.279Z,1.90
2022-12-11T17:58:00.949Z,2.25
2022-12-11T18:00:33.639Z,2.10
2022-12-11T18:03:07.390Z,1.75
2022-12-11T18:05:46.021Z,2.03
2022-12-11T18:08:22.611Z,2.28
2022-12-11T18:10:56.280Z,2.00
2022-12-11T18:13:29.500Z,1.80
2022-12-11T18:16:10.409Z,1.60
2022-12-11T18:18:43.833Z,1.98
2022-12-11T18:21:27.163Z,1.60
2022-12-11T18:24:01.084Z,1.80
2022-12-11T18:26:33.732Z,1.83
2022-12-11T18:29:06.903Z,1.70
2022-12-11T18:31:42.648Z,1.67
2022-12-11T18:34:17.976Z,1.95
2022-12-11T18:36:51.801Z,2.00
2022-12-11T18:39:25.529Z,2.28
2022-12-11T18:42:30.610Z,1.90
2022-12-11T18:44:50.619Z,1.95
2022-12-11T18:47:24.299Z,1.90
2022-12-11T18:50:00.122Z,2.08
2022-12-11T18:52:37.742Z,2.05
2022-12-11T18:55:10.873Z,2.08
2022-12-11T18:57:43.681Z,1.92
2022-12-11T19:00:17.736Z,2.10
2022-12-11T19:05:24.840Z,2.50
2022-12-11T19:07:57.525Z,2.10
2022-12-11T19:10:30.148Z,2.28
2022-12-11T19:13:02.851Z,2.10
2022-12-11T19:15:40.246Z,2.47
2022-12-11T19:18:12.925Z,2.25
2022-12-11T19:20:49.989Z,2.65
2022-12-11T19:23:25.231Z,2.33
2022-12-11T19:25:57.824Z,2.90
2022-12-11T19:28:31.095Z,2.08
2022-12-11T19:31:03.913Z,2.53
2022-12-11T19:33:36.772Z,2.40
2022-12-11T19:36:16.480Z,2.67
2022-12-11T19:38:50.152Z,3.25
2022-12-11T19:41:29.657Z,3.05
2022-12-11T19:44:02.333Z,2.47
2022-12-11T19:46:35.611Z,3.08
2022-12-11T19:49:08.287Z,2.77
2022-12-11T19:51:43.361Z,3.42
2022-12-11T19:54:17.774Z,3.05
2022-12-11T19:56:50.664Z,3.30
2022-12-11T19:59:23.218Z,2.72
2022-12-11T20:01:55.876Z,2.97
2022-12-11T20:04:28.753Z,3.08
2022-12-11T20:07:01.561Z,2.50
2022-12-11T20:09:34.357Z,2.47
2022-12-11T20:12:10.268Z,3.33
2022-12-11T20:14:42.944Z,2.40
2022-12-11T20:17:15.826Z,2.58
2022-12-11T20:19:48.412Z,3.25
2022-12-11T20:22:20.915Z,2.75
2022-12-11T20:24:53.470Z,2.85
2022-12-11T20:27:26.301Z,3.05
2022-12-11T20:29:59.180Z,2.80
2022-12-11T20:32:34.290Z,2.33
2022-12-11T20:35:08.621Z,2.45
2022-12-11T20:37:41.149Z,3.15
2022-12-11T20:40:14.361Z,2.70
2022-12-11T20:42:46.905Z,2.87
2022-12-11T20:45:19.546Z,3.13
2022-12-11T20:47:52.144Z,2.80
2022-12-11T20:50:24.663Z,2.92
2022-12-11T20:52:57.294Z,2.92
2022-12-11T20:55:29.968Z,3.22
2022-12-11T20:58:02.669Z,2.45
2022-12-11T21:00:39.860Z,3.08
2022-12-11T21:03:12.614Z,3.40
2022-12-11T21:05:46.589Z,2.90
2022-12-11T21:08:27.025Z,3.03
2022-12-11T21:10:59.552Z,2.92
2022-12-11T21:13:34.029Z,2.58
2022-12-11T21:16:09.049Z,2.30
2022-12-11T21:18:43.418Z,2.95
2022-12-11T21:21:16.612Z,2.65
2022-12-11T21:23:49.497Z,2.87
2022-12-11T21:26:26.242Z,2.90
2022-12-11T21:29:09.471Z,2.38
2022-12-11T21:32:00.597Z,2.40
2022-12-11T21:34:38.376Z,3.25
2022-12-11T21:37:16.892Z,2.92
2022-12-11T21:39:49.980Z,3.20
2022-12-11T21:42:52.261Z,3.63
2022-12-11T21:48:29.319Z,2.87
2022-12-11T21:51:15.207Z,2.55
2022-12-11T21:54:01.231Z,3.05
2022-12-11T21:56:34.254Z,3.13
2022-12-11T21:59:07.370Z,2.90
2022-12-11T22:01:46.456Z,3.08
2022-12-11T22:04:19.111Z,2.60
2022-12-11T22:06:51.908Z,3.22
2022-12-11T22:09:24.651Z,2.40
2022-12-11T22:11:58.801Z,2.63
2022-12-11T22:14:31.518Z,2.45
2022-12-11T22:17:04.106Z,2.33
2022-12-11T22:19:36.668Z,2.55
2022-12-11T22:22:09.305Z,2.20
2022-12-11T22:24:41.834Z,3.08
2022-12-11T22:27:16.823Z,2.70
2022-12-11T22:29:53.266Z,2.40
2022-12-11T22:32:27.462Z,2.53
2022-12-11T22:37:32.835Z,2.40
2022-12-11T22:40:06.280Z,2.83
2022-12-11T22:42:39.173Z,2.50
2022-12-11T22:45:12.037Z,2.20
2022-12-11T22:47:44.882Z,2.67
2022-12-11T22:50:18.117Z,2.85
2022-12-11T22:52:50.667Z,2.60
2022-12-11T22:55:23.269Z,3.63
2022-12-11T22:57:55.995Z,2.90
2022-12-11T23:00:28.633Z,2.80
2022-12-11T23:03:02.357Z,2.95
2022-12-11T23:05:35.076Z,2.65
2022-12-11T23:08:07.702Z,2.58
2022-12-11T23:10:41.149Z,3.65
2022-12-11T23:13:13.718Z,3.30
2022-12-11T23:15:46.352Z,3.13
2022-12-11T23:18:19.052Z,4.13
2022-12-11T23:20:51.575Z,2.80
2022-12-11T23:23:24.272Z,3.15
2022-12-11T23:25:57.095Z,2.88
2022-12-11T23:28:29.773Z,3.15
2022-12-11T23:31:02.485Z,2.65
2022-12-11T23:33:35.239Z,2.78
2022-12-11T23:36:09.357Z,2.78
2022-12-11T23:38:42.560Z,3.42
2022-12-11T23:41:15.701Z,2.97
2022-12-11T23:43:48.332Z,2.70
2022-12-11T23:46:24.783Z,3.50
2022-12-11T23:48:57.539Z,2.72
2022-12-11T23:51:30.537Z,3.03
2022-12-11T23:54:03.417Z,3.28
2022-12-11T23:56:36.104Z,2.70
2022-12-11T23:59:13.255Z,2.60
